createdAt,value
2019-02-23T00:03:06.689Z,8.20
2019-02-23T00:07:14.917Z,8.20
2019-02-23T00:11:26.241Z,8.20
2019-02-23T00:15:34.485Z,8.10
2019-02-23T00:19:42.749Z,8.10
2019-02-23T00:23:51.010Z,8.10
2019-02-23T00:27:59.260Z,8.20
2019-02-23T00:32:07.481Z,8.20
2019-02-23T00:36:15.739Z,8.20
2019-02-23T00:40:24.011Z,8.10
2019-02-23T00:44:32.235Z,8.10
2019-02-23T00:48:40.497Z,8.10
2019-02-23T00:52:48.811Z,8.00
2019-02-23T00:56:57.077Z,8.00
2019-02-23T01:01:05.355Z,8.00
2019-02-23T01:05:13.642Z,8.00
2019-02-23T01:09:21.905Z,7.90
2019-02-23T01:13:30.172Z,7.80
2019-02-23T01:17:38.435Z,7.80
2019-02-23T01:21:46.723Z,7.70
2019-02-23T01:25:54.962Z,7.70
2019-02-23T01:30:03.349Z,7.70
2019-02-23T01:34:11.566Z,7.70
2019-02-23T01:38:19.870Z,7.70
2019-02-23T01:42:28.121Z,7.60
2019-02-23T01:46:36.333Z,7.60
2019-02-23T01:50:44.603Z,7.60
2019-02-23T01:54:52.817Z,7.50
2019-02-23T01:59:01.106Z,7.50
2019-02-23T02:03:09.402Z,7.40
2019-02-23T02:11:25.696Z,7.40
2019-02-23T02:15:33.948Z,7.30
2019-02-23T02:19:42.204Z,7.30
2019-02-23T02:23:50.490Z,7.30
2019-02-23T02:27:58.694Z,7.20
2019-02-23T02:32:06.929Z,7.10
2019-02-23T02:36:15.194Z,7.10
2019-02-23T02:40:23.509Z,7.10
2019-02-23T02:44:31.741Z,7.10
2019-02-23T02:48:39.974Z,6.90
2019-02-23T02:52:48.231Z,6.70
2019-02-23T03:01:04.503Z,6.80
2019-02-23T03:05:12.751Z,6.70
2019-02-23T03:09:21.018Z,6.70
2019-02-23T03:13:29.292Z,6.50
2019-02-23T03:17:37.519Z,6.50
2019-02-23T03:21:45.826Z,6.50
2019-02-23T03:25:54.097Z,6.40
2019-02-23T03:30:02.377Z,6.30
2019-02-23T03:34:10.587Z,6.30
2019-02-23T03:38:18.862Z,6.30
2019-02-23T03:42:27.088Z,6.40
2019-02-23T03:46:35.330Z,6.30
2019-02-23T03:50:48.912Z,6.20
2019-02-23T03:54:51.874Z,6.10
2019-02-23T03:59:00.114Z,6.20
2019-02-23T04:03:08.350Z,6.00
2019-02-23T04:07:16.667Z,6.00
2019-02-23T04:11:24.903Z,6.10
2019-02-23T04:15:33.158Z,6.10
2019-02-23T04:19:41.393Z,6.10
2019-02-23T04:23:49.639Z,6.00
2019-02-23T04:27:57.870Z,6.00
2019-02-23T04:32:06.111Z,5.90
2019-02-23T04:36:14.362Z,5.90
2019-02-23T04:40:22.631Z,5.90
2019-02-23T04:44:30.857Z,5.90
2019-02-23T04:48:39.088Z,5.80
2019-02-23T04:52:47.347Z,5.80
2019-02-23T04:56:55.582Z,5.80
2019-02-23T05:01:03.835Z,5.80
2019-02-23T05:05:12.092Z,5.60
2019-02-23T05:09:20.317Z,5.50
2019-02-23T05:13:28.564Z,5.60
2019-02-23T05:17:36.885Z,5.50
2019-02-23T05:21:45.091Z,5.50
2019-02-23T05:25:53.346Z,5.50
2019-02-23T05:30:01.568Z,5.60
2019-02-23T05:34:09.815Z,5.60
2019-02-23T05:38:18.059Z,5.60
2019-02-23T05:46:34.326Z,5.40
2019-02-23T05:50:42.594Z,5.50
2019-02-23T05:54:50.871Z,5.50
2019-02-23T05:58:59.091Z,5.50
2019-02-23T06:03:07.322Z,5.60
2019-02-23T06:07:15.565Z,5.70
2019-02-23T06:11:23.787Z,5.80
2019-02-23T06:15:32.025Z,5.90
2019-02-23T06:19:40.257Z,6.00
2019-02-23T06:23:48.514Z,6.00
2019-02-23T06:27:56.737Z,6.00
2019-02-23T06:32:04.988Z,6.00
2019-02-23T06:36:13.215Z,6.00
2019-02-23T06:40:21.503Z,6.00
2019-02-23T06:44:29.698Z,6.00
2019-02-23T06:48:37.988Z,6.00
2019-02-23T06:52:46.215Z,6.00
2019-02-23T06:56:54.473Z,6.00
2019-02-23T07:01:02.713Z,6.00
2019-02-23T07:05:11.030Z,6.00
2019-02-23T07:09:19.269Z,5.90
2019-02-23T07:13:27.517Z,5.90
2019-02-23T07:17:35.807Z,5.90
2019-02-23T07:21:44.002Z,5.90
2019-02-23T07:25:52.245Z,6.00
2019-02-23T07:30:00.467Z,6.00
2019-02-23T07:34:08.736Z,6.00
2019-02-23T07:38:17.034Z,5.90
2019-02-23T07:42:25.254Z,5.90
2019-02-23T07:46:33.574Z,5.90
2019-02-23T07:50:41.814Z,5.90
2019-02-23T07:54:50.066Z,5.90
2019-02-23T07:58:58.318Z,5.90
2019-02-23T08:03:06.640Z,5.90
2019-02-23T08:07:14.866Z,5.90
2019-02-23T08:11:23.118Z,6.00
2019-02-23T08:15:31.397Z,6.10
2019-02-23T08:19:39.620Z,6.20
2019-02-23T08:23:47.960Z,6.20
2019-02-23T08:27:56.138Z,6.30
2019-02-23T08:32:04.381Z,6.30
2019-02-23T08:36:12.605Z,6.40
2019-02-23T08:40:20.849Z,6.50
2019-02-23T08:44:29.091Z,6.60
2019-02-23T08:48:37.344Z,6.70
2019-02-23T08:52:50.010Z,6.80
2019-02-23T08:56:55.333Z,6.90
2019-02-23T09:01:02.165Z,6.90
2019-02-23T09:05:10.850Z,7.00
2019-02-23T09:09:19.116Z,7.10
2019-02-23T09:13:27.384Z,7.20
2019-02-23T09:17:35.667Z,7.30
2019-02-23T09:25:51.996Z,7.50
2019-02-23T09:30:00.322Z,7.60
2019-02-23T09:34:08.491Z,7.70
2019-02-23T09:38:16.777Z,7.80
2019-02-23T09:42:25.006Z,7.80
2019-02-23T09:46:33.226Z,7.90
2019-02-23T09:50:41.487Z,7.90
2019-02-23T09:54:49.700Z,7.90
2019-02-23T09:58:57.968Z,7.90
2019-02-23T10:03:06.215Z,7.90
2019-02-23T10:07:14.474Z,7.90
2019-02-23T10:11:22.717Z,8.00
2019-02-23T10:15:30.948Z,8.00
2019-02-23T10:19:39.233Z,8.00
2019-02-23T10:23:47.500Z,8.10
2019-02-23T10:27:55.758Z,8.20
2019-02-23T10:32:04.026Z,8.30
2019-02-23T10:36:12.412Z,8.50
2019-02-23T10:40:20.799Z,8.70
2019-02-23T10:44:29.045Z,8.80
2019-02-23T10:48:37.299Z,9.10
2019-02-23T10:52:46.726Z,9.20
2019-02-23T10:56:54.970Z,9.40
2019-02-23T11:01:03.282Z,9.60
2019-02-23T11:05:11.566Z,9.80
2019-02-23T11:09:23.778Z,9.90
2019-02-23T11:13:33.150Z,10.00
2019-02-23T11:17:41.418Z,10.10
2019-02-23T11:21:49.669Z,10.20
2019-02-23T11:25:57.913Z,10.40
2019-02-23T11:30:07.217Z,10.60
2019-02-23T11:34:15.449Z,10.80
2019-02-23T11:38:23.699Z,11.00
2019-02-23T11:42:31.982Z,11.10
2019-02-23T11:46:45.190Z,11.10
2019-02-23T11:50:49.580Z,11.20
2019-02-23T11:54:57.838Z,11.40
2019-02-23T12:03:14.103Z,11.40
2019-02-23T12:07:22.374Z,11.40
2019-02-23T12:11:30.608Z,11.40
2019-02-23T12:15:38.912Z,11.50
2019-02-23T12:19:47.230Z,11.60
2019-02-23T12:24:05.480Z,11.60
2019-02-23T12:28:03.752Z,11.60
2019-02-23T12:32:12.042Z,11.70
2019-02-23T12:36:20.281Z,11.70
2019-02-23T12:40:28.533Z,11.60
2019-02-23T12:44:36.761Z,11.60
2019-02-23T12:48:45.013Z,11.50
2019-02-23T12:52:53.282Z,11.60
2019-02-23T12:57:01.522Z,11.60
2019-02-23T13:01:09.786Z,11.70
2019-02-23T13:05:18.211Z,11.80
2019-02-23T13:09:30.505Z,11.90
2019-02-23T13:13:50.201Z,11.90
2019-02-23T13:18:11.214Z,11.90
2019-02-23T13:22:34.213Z,11.80
2019-02-23T13:28:01.663Z,11.70
2019-02-23T13:32:23.389Z,11.80
2019-02-23T13:36:44.929Z,11.70
2019-02-23T13:42:07.734Z,11.60
2019-02-23T13:46:45.964Z,11.60
2019-02-23T13:51:09.397Z,11.60
2019-02-23T13:55:49.841Z,11.60
2019-02-23T14:00:07.281Z,11.60
2019-02-23T14:05:35.686Z,11.60
2019-02-23T14:10:04.926Z,11.60
2019-02-23T14:14:27.183Z,11.60
2019-02-23T14:18:49.339Z,11.70
2019-02-23T14:25:17.048Z,11.80
2019-02-23T14:29:35.591Z,11.70
2019-02-23T14:34:11.165Z,11.70
2019-02-23T14:38:33.404Z,11.70
2019-02-23T14:42:57.916Z,11.80
2019-02-23T14:47:18.457Z,11.80
2019-02-23T14:52:47.065Z,11.90
2019-02-23T14:57:09.779Z,11.90
2019-02-23T15:01:45.067Z,11.90
2019-02-23T15:06:11.242Z,11.90
2019-02-23T15:10:40.686Z,11.90
2019-02-23T15:15:38.261Z,11.80
2019-02-23T15:19:57.778Z,11.80
2019-02-23T15:24:17.789Z,11.70
2019-02-23T15:28:44.038Z,11.70
2019-02-23T15:33:45.465Z,11.60
2019-02-23T15:38:36.982Z,11.60
2019-02-23T15:43:02.083Z,11.50
2019-02-23T15:47:28.838Z,11.40
2019-02-23T15:51:37.110Z,11.40
2019-02-23T15:55:45.341Z,11.30
2019-02-23T15:59:53.568Z,11.30
2019-02-23T16:04:01.871Z,11.20
2019-02-23T16:08:10.191Z,11.10
2019-02-23T16:12:18.543Z,11.10
2019-02-23T16:16:26.801Z,11.10
2019-02-23T16:20:35.090Z,11.00
2019-02-23T16:24:44.410Z,11.00
2019-02-23T16:28:55.695Z,10.90
2019-02-23T16:33:01.007Z,10.80
2019-02-23T16:37:09.202Z,10.80
2019-02-23T16:41:17.488Z,10.70
2019-02-23T16:45:25.751Z,10.70
2019-02-23T16:49:34.021Z,10.60
2019-02-23T16:53:42.283Z,10.50
2019-02-23T17:01:58.535Z,10.40
2019-02-23T17:06:06.763Z,10.40
2019-02-23T17:10:15.027Z,10.30
2019-02-23T17:14:23.285Z,10.30
2019-02-23T17:18:31.502Z,10.20
2019-02-23T17:22:39.785Z,10.10
2019-02-23T17:26:48.026Z,9.90
2019-02-23T17:30:56.254Z,9.90
2019-02-23T17:35:04.676Z,9.80
2019-02-23T17:39:13.018Z,9.70
2019-02-23T17:43:21.207Z,9.70
2019-02-23T17:47:29.443Z,9.70
2019-02-23T17:51:37.690Z,9.60
2019-02-23T17:55:45.947Z,9.60
2019-02-23T17:59:54.190Z,9.50
2019-02-23T18:04:02.426Z,9.50
2019-02-23T18:08:10.696Z,9.50
2019-02-23T18:12:18.976Z,9.40
2019-02-23T18:16:27.204Z,9.30
2019-02-23T18:20:35.552Z,9.30
2019-02-23T18:24:43.775Z,9.20
2019-02-23T18:28:52.044Z,9.20
2019-02-23T18:33:00.272Z,9.10
2019-02-23T18:37:08.509Z,9.10
2019-02-23T18:41:16.803Z,9.00
2019-02-23T18:45:25.046Z,9.00
2019-02-23T18:49:33.410Z,8.90
2019-02-23T18:53:41.622Z,8.90
2019-02-23T18:57:49.827Z,8.90
2019-02-23T19:01:58.085Z,8.90
2019-02-23T19:06:06.379Z,8.80
2019-02-23T19:10:14.607Z,8.80
2019-02-23T19:14:22.851Z,8.70
2019-02-23T19:18:31.118Z,8.70
2019-02-23T19:22:39.427Z,8.70
2019-02-23T19:26:47.699Z,8.60
2019-02-23T19:30:55.932Z,8.50
2019-02-23T19:35:04.622Z,8.50
2019-02-23T19:39:12.817Z,8.40
2019-02-23T19:43:21.079Z,8.30
2019-02-23T19:47:32.417Z,8.30
2019-02-23T19:51:40.696Z,8.20
2019-02-23T19:55:48.903Z,8.20
2019-02-23T19:59:57.182Z,8.20
2019-02-23T20:04:05.420Z,8.10
2019-02-23T20:08:13.665Z,8.10
2019-02-23T20:12:21.933Z,8.00
2019-02-23T20:16:30.145Z,8.00
2019-02-23T20:20:38.459Z,8.00
2019-02-23T20:24:46.728Z,7.90
2019-02-23T20:28:54.961Z,7.90
2019-02-23T20:33:03.270Z,7.80
2019-02-23T20:41:20.255Z,7.70
2019-02-23T20:45:28.551Z,7.70
2019-02-23T20:49:36.882Z,7.70
2019-02-23T20:53:45.117Z,7.60
2019-02-23T20:57:53.430Z,7.60
2019-02-23T21:02:01.693Z,7.60
2019-02-23T21:06:09.934Z,7.50
2019-02-23T21:10:18.230Z,7.40
2019-02-23T21:14:26.484Z,7.40
2019-02-23T21:18:34.773Z,7.40
2019-02-23T21:22:43.023Z,7.30
2019-02-23T21:26:51.241Z,7.30
2019-02-23T21:30:59.506Z,7.30
2019-02-23T21:35:07.831Z,7.30
2019-02-23T21:39:16.111Z,7.30
2019-02-23T21:43:24.363Z,7.30
2019-02-23T21:47:32.670Z,7.30
2019-02-23T21:51:40.930Z,7.30
2019-02-23T21:55:49.185Z,7.30
2019-02-23T21:59:57.406Z,7.20
2019-02-23T22:04:05.684Z,7.20
2019-02-23T22:08:13.932Z,7.20
2019-02-23T22:12:22.144Z,7.20
2019-02-23T22:16:30.384Z,7.10
2019-02-23T22:20:38.592Z,7.10
2019-02-23T22:24:46.877Z,7.10
2019-02-23T22:28:55.118Z,7.10
2019-02-23T22:33:03.359Z,7.10
2019-02-23T22:37:11.608Z,7.00
2019-02-23T22:41:19.842Z,7.00
2019-02-23T22:45:28.229Z,7.00
2019-02-23T22:49:36.478Z,7.00
2019-02-23T22:53:44.721Z,7.00
2019-02-23T22:57:52.970Z,7.00
2019-02-23T23:02:01.185Z,6.90
2019-02-23T23:06:09.453Z,6.80
2019-02-23T23:10:17.729Z,6.80
2019-02-23T23:14:25.966Z,6.80
2019-02-23T23:18:34.220Z,6.80
2019-02-23T23:22:42.437Z,6.80
2019-02-23T23:26:50.673Z,6.70
2019-02-23T23:30:58.918Z,6.70
2019-02-23T23:35:07.185Z,6.60
2019-02-23T23:39:15.426Z,6.60
2019-02-23T23:43:23.645Z,6.60
2019-02-23T23:47:31.951Z,6.60
2019-02-23T23:51:40.225Z,6.60
2019-02-23T23:55:48.462Z,6.50
2019-02-23T23:59:56.702Z,6.40
